This is the latest recevied weather packets stored in our database for station/object KA6AKH-13. If no packets are shown the sender has not sent any weather packets the latest 10 day(s).
| Time | Temp. | Humidity | Pressure | Rain* | Wind** | Luminosity | Snow |
|---|---|---|---|---|---|---|---|
| 1777904695 | 17.22° C | 47% | 1014.2 hPa | 0 mm | - | - | - |
| 1777904095 | 17.22° C | 48% | 1014.3 hPa | 0 mm | - | - | - |
| 1777903465 | 16.67° C | 50% | 1014.3 hPa | 0 mm | - | - | - |
| 1777902865 | 16.11° C | 50% | 1014.4 hPa | 0 mm | - | - | - |
| 1777899805 | 13.89° C | 57% | 1015 hPa | 0 mm | - | - | - |
| 1777899175 | 13.33° C | 58% | 1015 hPa | 0 mm | - | - | - |
| 1777896715 | 12.22° C | 66% | 1015.1 hPa | 0 mm | - | - | - |
| 1777895485 | 12.22° C | 68% | 1015.2 hPa | 0 mm | - | - | - |
| 1777894885 | 12.22° C | 68% | 1015.3 hPa | 0 mm | - | - | - |
| 1777893655 | 11.67° C | 69% | 1015.2 hPa | 0 mm | - | - | - |
| 1777893055 | 11.11° C | 70% | 1015.3 hPa | 0 mm | - | - | - |
| 1777892455 | 10.56° C | 71% | 1015.3 hPa | 0 mm | - | - | - |
| 1777891828 | 10.56° C | 70% | 1015.2 hPa | 0 mm | - | - | - |
| 1777891225 | 11.11° C | 69% | 1015.2 hPa | 0 mm | - | - | - |
| 1777888105 | 11.67° C | 63% | 1015.1 hPa | 0 mm | - | - | - |
| 1777885015 | 11.67° C | 66% | 1015.3 hPa | 0 mm | - | - | - |
| 1777884416 | 11.67° C | 67% | 1015.3 hPa | 0 mm | - | - | - |
| 1777883155 | 11.67° C | 69% | 1015.4 hPa | 0 mm | - | - | - |
| 1777882525 | 11.67° C | 69% | 1015.4 hPa | 0 mm | - | - | - |
| 1777877005 | 10.56° C | 74% | 1015.4 hPa | 0 mm | - | - | - |
| 1777876375 | 10.56° C | 74% | 1015.5 hPa | 0 mm | - | - | - |
| 1777875775 | 10.56° C | 73% | 1015.6 hPa | 0 mm | - | - | - |
| 1777875175 | 10.56° C | 74% | 1015.7 hPa | 0 mm | - | - | - |
| 1777874575 | 10° C | 73% | 1015.8 hPa | 0 mm | - | - | - |
| 1777873945 | 10° C | 73% | 1015.7 hPa | 0 mm | - | - | - |
* Rain latest hour (hover to see other rain measurements)
** Current wind speed in m/s (hover to see current wind gust speed)